Time;durP1;ratioP1;P1;durP2;ratioP2;P2;SDS_P1;SDS_P2;PMS_P1;PMS_P2;Temp;Humidity;BMP_temperature;BMP_pressure;BME280_temperature;BME280_humidity;BME280_pressure;Samples;Min_cycle;Max_cycle;Signal;HPM_P1;HPM_P2
2023/01/24 00:00:52;;;;;;;28.50;17.60;;;;;;;2.81;73.76;102886.97;5076076;28;20044;-66
2023/01/24 00:03:20;;;;;;;27.55;17.10;;;;;;;2.75;73.72;102888.66;5072376;28;20053;-69
2023/01/24 00:05:48;;;;;;;31.25;18.90;;;;;;;3.07;73.70;102884.22;5063910;28;20048;-68
2023/01/24 00:08:22;;;;;;;32.03;19.63;;;;;;;3.20;73.07;102876.06;5077110;28;20060;-68
2023/01/24 00:11:01;;;;;;;35.63;21.23;;;;;;;2.95;73.89;102886.75;5060371;28;20056;-67
2023/01/24 00:13:29;;;;;;;35.00;21.83;;;;;;;2.82;74.86;102888.66;5061179;28;20049;-66
2023/01/24 00:16:11;;;;;;;36.92;21.88;;;;;;;2.77;75.55;102885.72;5075060;28;20407;-67
2023/01/24 00:18:39;;;;;;;35.00;21.60;;;;;;;2.93;75.09;102888.03;5079048;28;20056;-68
2023/01/24 00:21:13;;;;;;;35.17;21.98;;;;;;;3.01;74.29;102879.66;5077937;28;20048;-66
2023/01/24 00:23:42;;;;;;;32.03;20.45;;;;;;;2.98;74.59;102886.34;5077212;28;20067;-68
2023/01/24 00:26:10;;;;;;;34.10;22.42;;;;;;;3.14;74.08;102880.47;5076871;28;20511;-67
2023/01/24 00:28:38;;;;;;;36.08;22.50;;;;;;;3.05;74.48;102889.88;5078528;28;20131;-67
2023/01/24 00:31:05;;;;;;;37.88;22.30;;;;;;;3.12;74.31;102876.28;5057185;28;20059;-67
2023/01/24 00:33:33;;;;;;;36.38;22.75;;;;;;;2.85;75.16;102872.75;5073409;28;20044;-67
2023/01/24 00:36:01;;;;;;;35.78;22.35;;;;;;;2.83;75.39;102879.44;5076711;28;20041;-68
2023/01/24 00:38:30;;;;;;;36.38;23.20;;;;;;;2.93;75.43;102867.06;5078203;28;20049;-67
2023/01/24 00:40:57;;;;;;;35.95;22.38;;;;;;;3.05;75.06;102862.66;5077586;28;20067;-67
2023/01/24 00:43:26;;;;;;;35.35;22.40;;;;;;;3.10;74.83;102864.78;5078401;28;20048;-67
2023/01/24 00:45:54;;;;;;;35.78;22.95;;;;;;;2.94;75.02;102866.06;5060387;28;20044;-67
2023/01/24 00:48:22;;;;;;;35.95;22.88;;;;;;;2.95;75.68;102859.53;5075989;28;20048;-67
2023/01/24 00:50:49;;;;;;;37.83;23.73;;;;;;;3.12;75.17;102865.41;5059493;28;20048;-67
2023/01/24 00:53:17;;;;;;;35.78;22.23;;;;;;;2.84;75.43;102876.50;5076660;28;20056;-67
2023/01/24 00:55:45;;;;;;;37.78;23.50;;;;;;;2.97;75.84;102875.66;5076168;28;20056;-67
2023/01/24 00:58:13;;;;;;;34.92;22.10;;;;;;;2.82;75.80;102877.78;5076767;28;20056;-66
2023/01/24 01:00:41;;;;;;;34.47;21.92;;;;;;;2.90;75.46;102877.53;5077404;28;20060;-67
2023/01/24 01:03:17;;;;;;;36.55;22.45;;;;;;;2.96;75.22;102876.72;5074129;28;20048;-67
2023/01/24 01:05:44;;;;;;;35.22;22.17;;;;;;;2.77;76.02;102880.28;5042921;28;20049;-67
2023/01/24 01:08:13;;;;;;;34.10;21.67;;;;;;;2.82;75.87;102866.88;5059996;28;20052;-67
2023/01/24 01:10:41;;;;;;;36.55;23.05;;;;;;;2.95;75.73;102877.75;5075940;28;20712;-67
2023/01/24 01:13:10;;;;;;;39.55;24.48;;;;;;;2.81;75.95;102876.09;5077817;28;20391;-67
2023/01/24 01:15:38;;;;;;;39.28;24.02;;;;;;;2.92;76.12;102873.59;5043299;28;20057;-67
2023/01/24 01:18:05;;;;;;;37.63;23.60;;;;;;;2.87;76.17;102877.97;5075434;28;20052;-67
2023/01/24 01:20:33;;;;;;;38.10;23.17;;;;;;;2.80;76.39;102882.59;5058299;28;20071;-66
2023/01/24 01:23:00;;;;;;;39.17;24.33;;;;;;;2.73;76.93;102879.88;5076067;28;20048;-67
2023/01/24 01:25:29;;;;;;;38.78;23.83;;;;;;;2.95;76.51;102888.63;5059373;28;20059;-68
2023/01/24 01:27:56;;;;;;;35.47;20.92;;;;;;;2.77;76.04;102912.94;5042902;28;20388;-67
2023/01/24 01:30:24;;;;;;;36.33;23.52;;;;;;;2.75;76.24;102913.16;5076794;28;20060;-67
2023/01/24 01:32:51;;;;;;;34.60;21.42;;;;;;;2.73;76.44;102898.06;5062918;28;20381;-67
2023/01/24 01:35:18;;;;;;;36.97;22.20;;;;;;;2.69;76.33;102878.59;5056791;28;20057;-68
2023/01/24 01:37:46;;;;;;;38.67;23.50;;;;;;;2.78;76.63;102896.41;5059600;28;20427;-67
2023/01/24 01:40:13;;;;;;;39.22;24.35;;;;;;;2.78;76.72;102880.06;5076055;28;20053;-67
2023/01/24 01:42:49;;;;;;;39.75;23.48;;;;;;;2.73;76.90;102885.31;5059019;28;20153;-67
2023/01/24 01:45:45;;;;;;;39.92;23.45;;;;;;;2.77;77.38;102892.00;5075683;28;20056;-67
2023/01/24 01:48:50;;;;;;;37.63;23.85;;;;;;;2.86;77.37;102884.47;5074672;28;20056;-67
2023/01/24 01:51:23;;;;;;;41.80;25.42;;;;;;;2.86;76.72;102887.19;5076431;28;20052;-67
2023/01/24 01:54:01;;;;;;;40.90;24.83;;;;;;;3.11;76.49;102888.22;5070969;28;20076;-66
2023/01/24 01:56:46;;;;;;;42.17;25.73;;;;;;;3.13;76.22;102895.13;5041826;28;20051;-66
2023/01/24 01:59:20;;;;;;;46.03;26.63;;;;;;;2.85;76.94;102894.53;5075632;28;20052;-66
2023/01/24 02:01:49;;;;;;;39.65;24.30;;;;;;;2.70;77.67;102893.06;5075031;28;20048;-67
2023/01/24 02:04:20;;;;;;;42.45;25.10;;;;;;;2.79;77.79;102900.78;5059327;28;20065;-67
2023/01/24 02:06:51;;;;;;;47.63;26.35;;;;;;;2.60;78.13;102890.72;5042215;28;20388;-67
2023/01/24 02:09:22;;;;;;;42.95;25.17;;;;;;;2.80;78.07;102897.03;5055694;28;20052;-68
2023/01/24 02:11:52;;;;;;;41.10;25.65;;;;;;;2.53;77.97;102894.50;5051554;28;20044;-67
2023/01/24 02:17:06;;;;;;;42.22;25.58;;;;;;;2.63;78.07;102897.66;5070972;28;20044;-67
2023/01/24 02:19:52;;;;;;;41.03;25.67;;;;;;;2.76;77.34;102906.66;5076582;28;20456;-68
2023/01/24 02:22:42;;;;;;;40.40;25.38;;;;;;;2.55;77.39;102916.88;5057277;28;20079;-68
2023/01/24 02:25:19;;;;;;;41.97;25.98;;;;;;;2.57;77.81;102906.63;5075048;28;20048;-67
2023/01/24 02:27:47;;;;;;;42.47;25.67;;;;;;;2.76;77.04;102905.81;5041685;28;20048;-67
2023/01/24 02:30:15;;;;;;;39.05;23.85;;;;;;;2.35;77.75;102903.25;5071882;28;20048;-67
2023/01/24 02:32:42;;;;;;;40.47;25.63;;;;;;;2.53;77.11;102902.66;5057417;28;20053;-67
2023/01/24 02:35:28;;;;;;;40.72;24.60;;;;;;;2.58;77.05;102892.81;5058274;28;20403;-67
2023/01/24 02:37:58;;;;;;;38.92;24.20;;;;;;;2.30;77.36;102911.19;5071517;28;20045;-67
2023/01/24 02:40:27;;;;;;;37.63;24.80;;;;;;;2.46;77.22;102894.47;5039470;28;20468;-66
2023/01/24 02:42:57;;;;;;;43.20;24.38;;;;;;;2.28;78.26;102903.22;5038785;28;20048;-67
2023/01/24 02:45:27;;;;;;;36.67;23.05;;;;;;;2.31;77.88;102893.84;5056371;28;20060;-67
2023/01/24 02:47:55;;;;;;;;;;;;;;;2.39;77.11;102892.81;5074800;28;20048;-67
2023/01/24 02:50:25;;;;;;;40.83;23.45;;;;;;;2.56;76.70;102897.66;5057211;28;20288;-67
2023/01/24 02:58:27;;;;;;;34.22;21.95;;;;;;;2.55;76.54;102911.44;5068390;28;20045;-66
2023/01/24 03:00:55;;;;;;;37.60;22.77;;;;;;;2.26;77.04;102908.06;5059703;28;20059;-67
2023/01/24 03:03:24;;;;;;;36.58;22.92;;;;;;;2.25;77.22;102905.50;5057963;28;20049;-67
2023/01/24 03:05:57;;;;;;;39.20;24.35;;;;;;;2.32;77.26;102894.69;5073623;28;20059;-67
2023/01/24 03:08:32;;;;;;;36.25;23.30;;;;;;;2.47;76.46;102901.59;5038639;28;20049;-67
2023/01/24 03:11:02;;;;;;;37.42;22.92;;;;;;;2.45;76.16;102900.97;5060605;28;20055;-67
2023/01/24 03:35:54;;;;;;;40.35;23.17;;;;;;;2.01;78.38;102900.63;5044719;28;20059;-67
2023/01/24 03:41:16;;;;;;;39.55;24.50;;;;;;;2.22;77.93;102895.06;5073511;28;20052;-67
2023/01/24 03:43:43;;;;;;;39.83;23.83;;;;;;;2.24;77.54;102901.97;5073654;28;20060;-67
2023/01/24 03:46:12;;;;;;;39.20;25.27;;;;;;;2.40;77.21;102908.91;5073746;28;20044;-67
2023/01/24 03:48:52;;;;;;;38.20;23.40;;;;;;;2.46;76.75;102902.63;5042221;28;20056;-67
2023/01/24 03:54:13;;;;;;;40.90;24.83;;;;;;;2.37;76.53;102900.34;5040599;28;20048;-68
2023/01/24 03:57:02;;;;;;;40.90;25.33;;;;;;;2.20;77.91;102902.56;5067846;28;20053;-68
2023/01/24 03:59:29;;;;;;;42.10;25.45;;;;;;;2.21;78.00;102905.09;5057610;28;20048;-67
2023/01/24 04:01:57;;;;;;;41.45;26.05;;;;;;;2.18;77.95;102899.22;5040081;28;20051;-67
2023/01/24 04:05:12;;;;;;;43.67;27.02;;;;;;;2.27;77.90;102895.28;5074273;28;20056;-67
2023/01/24 04:07:16;;;;;;;40.55;25.15;;;;;;;2.34;77.41;102895.31;5072099;28;20052;-67
2023/01/24 04:09:54;;;;;;;44.38;26.77;;;;;;;2.17;78.20;102898.41;5056670;28;20052;-68
2023/01/24 04:12:21;;;;;;;45.13;27.25;;;;;;;2.15;78.13;102899.63;5072935;28;20053;-67
2023/01/24 04:14:48;;;;;;;41.67;26.42;;;;;;;2.19;78.43;102900.91;5073941;28;20055;-67
2023/01/24 04:17:16;;;;;;;47.13;27.48;;;;;;;2.32;78.02;102891.97;5056036;28;20052;-67
2023/01/24 04:19:47;;;;;;;44.25;28.10;;;;;;;2.44;77.83;102906.63;5074918;28;20059;-67
2023/01/24 04:22:16;;;;;;;43.95;26.73;;;;;;;2.37;77.25;102901.19;5061273;28;20053;-67
2023/01/24 04:24:45;;;;;;;44.67;27.70;;;;;;;2.50;77.47;102894.91;5037149;28;20064;-67
2023/01/24 04:27:12;;;;;;;47.05;28.80;;;;;;;2.60;77.21;102887.19;5070052;28;20056;-67
2023/01/24 04:29:59;;;;;;;42.85;26.90;;;;;;;2.39;77.25;102887.38;5042609;28;20056;-70
2023/01/24 04:32:28;;;;;;;48.97;28.02;;;;;;;2.16;78.66;102898.63;5072711;28;20049;-67
2023/01/24 04:35:00;;;;;;;44.85;27.30;;;;;;;2.36;78.20;102887.75;5074861;28;20416;-67
2023/01/24 04:37:57;;;;;;;43.28;26.85;;;;;;;2.17;78.33;102901.13;5055831;28;20049;-66
2023/01/24 04:40:35;;;;;;;43.65;26.13;;;;;;;2.22;78.79;102898.63;5059924;28;20048;-67
2023/01/24 04:43:02;;;;;;;43.95;28.45;;;;;;;2.41;77.75;102901.59;5077278;28;20060;-67
2023/01/24 04:45:31;;;;;;;43.88;27.23;;;;;;;2.43;77.70;102894.91;5076679;28;20056;-67
2023/01/24 04:47:59;;;;;;;47.60;28.45;;;;;;;2.43;77.54;102907.66;5076800;28;20052;-67
2023/01/24 04:50:27;;;;;;;45.80;28.20;;;;;;;2.32;78.38;102902.84;5075482;28;20389;-67
2023/01/24 04:52:54;;;;;;;46.53;29.17;;;;;;;2.39;77.86;102893.63;5076450;28;20052;-68
2023/01/24 04:55:22;;;;;;;46.33;28.85;;;;;;;2.36;77.95;102899.47;5058836;28;20075;-67
2023/01/24 04:57:51;;;;;;;41.95;27.60;;;;;;;2.38;78.29;102902.00;5076619;28;20045;-67
2023/01/24 05:00:19;;;;;;;46.25;29.00;;;;;;;2.36;78.40;102904.91;5075969;28;20499;-67
2023/01/24 05:02:46;;;;;;;48.03;30.02;;;;;;;2.47;78.03;102895.31;5059821;28;20666;-67
2023/01/24 05:05:15;;;;;;;46.80;28.58;;;;;;;2.47;77.54;102912.50;5058517;28;20053;-67
2023/01/24 05:07:43;;;;;;;43.25;27.50;;;;;;;2.58;77.76;102909.13;5076361;28;20052;-68
2023/01/24 05:10:15;;;;;;;41.97;26.30;;;;;;;2.47;77.22;102919.78;5076244;28;20059;-67
2023/01/24 05:12:44;;;;;;;42.00;26.08;;;;;;;2.37;78.25;102924.81;5076375;28;20049;-68
2023/01/24 05:15:19;;;;;;;44.35;26.85;;;;;;;2.25;78.52;102924.53;5060576;28;20052;-67
2023/01/24 05:17:47;;;;;;;44.65;27.33;;;;;;;2.20;78.84;102924.31;5059521;28;20055;-67
2023/01/24 05:20:18;;;;;;;46.33;28.33;;;;;;;2.42;78.73;102916.88;5075347;28;20052;-67
2023/01/24 05:22:46;;;;;;;45.33;26.88;;;;;;;2.23;78.86;102919.31;5075781;28;20053;-66
2023/01/24 05:25:15;;;;;;;46.08;28.90;;;;;;;2.36;79.06;102923.13;5075804;28;20129;-67
2023/01/24 05:27:43;;;;;;;44.15;27.27;;;;;;;2.42;78.57;102925.03;5076165;28;20048;-67
2023/01/24 05:30:12;;;;;;;46.85;28.75;;;;;;;2.32;78.96;102935.47;5076028;28;20487;-67
2023/01/24 05:32:39;;;;;;;44.65;29.25;;;;;;;2.24;79.27;102923.72;5075637;28;20499;-67
2023/01/24 05:35:08;;;;;;;51.30;29.33;;;;;;;2.30;79.00;102927.50;5071173;28;20049;-68
2023/01/24 05:37:39;;;;;;;44.28;27.95;;;;;;;2.29;78.85;102923.94;5054962;28;20045;-67
2023/01/24 05:40:09;;;;;;;44.38;27.42;;;;;;;2.45;78.75;102930.03;5055964;28;20060;-68
2023/01/24 05:42:41;;;;;;;52.05;30.45;;;;;;;2.41;78.75;102931.53;5074846;28;20059;-68
2023/01/24 05:45:09;;;;;;;45.05;29.13;;;;;;;2.35;78.80;102933.19;5059838;28;20055;-68
2023/01/24 05:47:37;;;;;;;47.10;28.42;;;;;;;2.53;78.81;102932.59;5075006;28;20056;-68
2023/01/24 05:50:07;;;;;;;42.20;26.42;;;;;;;2.39;78.54;102930.88;5076239;28;20056;-68
2023/01/24 05:52:34;;;;;;;42.45;26.23;;;;;;;2.33;78.74;102939.84;5074276;28;20048;-68
2023/01/24 05:55:01;;;;;;;41.92;26.20;;;;;;;2.37;78.87;102941.13;5059102;28;20056;-68
2023/01/24 05:57:36;;;;;;;39.72;25.33;;;;;;;2.35;79.16;102940.47;5075366;28;20079;-68
2023/01/24 06:00:10;;;;;;;40.97;27.20;;;;;;;2.33;79.06;102937.13;5060739;28;20078;-67
2023/01/24 06:02:42;;;;;;;43.08;26.67;;;;;;;2.41;78.95;102931.53;5075297;28;20052;-67
2023/01/24 06:05:11;;;;;;;41.42;26.98;;;;;;;2.41;78.92;102934.25;5058860;28;20055;-67
2023/01/24 06:07:38;;;;;;;44.33;27.30;;;;;;;2.50;78.47;102939.25;5075256;28;20546;-67
2023/01/24 06:10:06;;;;;;;43.95;28.27;;;;;;;2.44;78.42;102928.38;5075377;28;20052;-68
2023/01/24 06:12:45;;;;;;;46.33;29.60;;;;;;;2.43;79.04;102932.13;5075535;28;20055;-67
2023/01/24 06:15:13;;;;;;;50.22;29.35;;;;;;;2.55;79.07;102946.78;5073869;28;20408;-67
2023/01/24 06:17:40;;;;;;;48.10;29.60;;;;;;;2.44;78.67;102947.41;5058623;28;20705;-67
2023/01/24 06:20:10;;;;;;;53.70;32.22;;;;;;;2.38;78.99;102950.94;5058565;28;20049;-67
2023/01/24 06:22:41;;;;;;;46.78;28.63;;;;;;;2.30;79.67;102950.09;5058230;28;20067;-69
2023/01/24 06:25:29;;;;;;;41.85;27.65;;;;;;;2.12;79.88;102963.41;5075245;28;20049;-68
2023/01/24 06:27:56;;;;;;;43.53;28.58;;;;;;;2.14;80.12;102966.75;5076502;28;20060;-67
2023/01/24 06:30:24;;;;;;;44.90;29.17;;;;;;;2.19;80.34;102968.88;5070972;28;20059;-66
2023/01/24 06:33:02;;;;;;;43.42;27.15;;;;;;;2.14;79.75;102966.75;5076395;28;20052;-68
2023/01/24 06:35:32;;;;;;;42.58;27.40;;;;;;;2.16;80.38;102967.38;5075887;28;20060;-69
2023/01/24 06:38:00;;;;;;;43.25;27.58;;;;;;;2.32;79.70;102957.22;5065200;28;20057;-68
2023/01/24 06:40:28;;;;;;;42.97;28.02;;;;;;;2.46;79.24;102964.38;5084033;28;20044;-67
2023/01/24 06:42:55;;;;;;;44.95;28.55;;;;;;;2.22;79.68;102952.16;5074959;28;20050;-68
2023/01/24 06:45:23;;;;;;;48.42;29.80;;;;;;;2.48;79.23;102944.06;5080071;28;20055;-67
2023/01/24 06:47:50;;;;;;;53.25;29.42;;;;;;;2.57;78.92;102942.00;5076194;28;20052;-68
2023/01/24 06:50:20;;;;;;;49.40;29.75;;;;;;;2.55;78.26;102946.78;5075663;28;20041;-68
2023/01/24 06:52:49;;;;;;;47.05;29.70;;;;;;;2.50;78.59;102955.59;5060712;28;20045;-67
2023/01/24 06:55:16;;;;;;;46.05;30.27;;;;;;;2.37;78.85;102957.44;5077873;28;20059;-68
2023/01/24 06:57:46;;;;;;;53.45;31.63;;;;;;;2.51;79.51;102954.53;5074740;28;20052;-68
2023/01/24 07:00:14;;;;;;;47.67;31.52;;;;;;;2.70;78.85;102961.91;5074842;28;20044;-68
2023/01/24 07:02:41;;;;;;;47.58;30.08;;;;;;;2.71;78.45;102962.72;5074549;28;20071;-68
2023/01/24 07:05:09;;;;;;;48.13;31.23;;;;;;;2.64;78.95;102961.88;5074241;28;20067;-67
2023/01/24 07:07:36;;;;;;;54.78;32.22;;;;;;;2.80;78.29;102970.50;5065581;28;20144;-67
2023/01/24 07:10:05;;;;;;;52.13;32.00;;;;;;;2.58;78.49;102968.97;5072338;28;20040;-67
2023/01/24 07:12:32;;;;;;;47.85;30.45;;;;;;;2.60;78.76;102971.53;5075684;28;20529;-67
2023/01/24 07:14:59;;;;;;;53.13;34.13;;;;;;;2.74;78.55;102973.19;5065149;28;20055;-67
2023/01/24 07:17:27;;;;;;;50.30;31.95;;;;;;;2.68;78.50;102982.19;5062235;28;20048;-66
2023/01/24 07:19:54;;;;;;;50.38;31.85;;;;;;;2.65;78.77;102979.91;5058989;28;20045;-67
2023/01/24 07:22:22;;;;;;;50.05;32.17;;;;;;;2.52;79.24;102979.84;5068543;28;20056;-68
2023/01/24 07:24:49;;;;;;;55.58;34.10;;;;;;;2.21;80.44;102983.13;5059785;28;20447;-66
2023/01/24 07:27:17;;;;;;;55.85;34.42;;;;;;;2.35;80.90;102994.88;5059186;28;20045;-68
2023/01/24 07:29:45;;;;;;;56.55;34.25;;;;;;;2.18;80.97;102987.06;5059178;28;20041;-67
2023/01/24 07:32:12;;;;;;;57.38;34.65;;;;;;;2.27;81.55;102994.00;5068709;28;20044;-67
2023/01/24 07:34:40;;;;;;;52.28;33.40;;;;;;;2.15;81.51;102992.91;5058534;28;20381;-66
2023/01/24 07:37:07;;;;;;;53.75;32.22;;;;;;;2.32;82.91;103000.72;5064381;28;20540;-67
2023/01/24 07:39:34;;;;;;;52.47;33.08;;;;;;;2.37;81.75;102995.50;5062889;28;20753;-67
2023/01/24 07:42:02;;;;;;;52.60;33.10;;;;;;;2.34;82.37;103001.38;5062575;28;20044;-66
2023/01/24 07:44:29;;;;;;;55.35;34.28;;;;;;;2.61;81.14;103003.13;5054225;28;20060;-66
2023/01/24 07:46:57;;;;;;;60.22;35.38;;;;;;;2.68;80.24;103003.97;5062466;28;20051;-66
2023/01/24 07:49:24;;;;;;;57.17;34.05;;;;;;;2.61;80.20;103000.38;5060208;28;20045;-68
2023/01/24 07:51:51;;;;;;;57.88;35.13;;;;;;;2.55;80.66;103007.47;5057378;28;20049;-69
2023/01/24 07:54:19;;;;;;;56.17;35.50;;;;;;;2.67;80.06;103010.47;5056565;28;20504;-68
2023/01/24 07:56:47;;;;;;;56.17;33.08;;;;;;;2.41;80.23;103015.81;5060239;28;20057;-68
2023/01/24 07:59:15;;;;;;;53.22;32.83;;;;;;;2.14;82.32;103025.75;5074930;28;20504;-68
2023/01/24 08:01:44;;;;;;;53.97;33.90;;;;;;;2.40;81.39;103016.84;5063563;28;20048;-67
2023/01/24 08:04:11;;;;;;;58.05;35.53;;;;;;;2.56;80.63;103030.09;5071563;28;20068;-68
2023/01/24 08:07:16;;;;;;;55.28;34.30;;;;;;;2.51;80.66;103022.53;5061125;28;20049;-67
2023/01/24 08:09:29;;;;;;;54.80;35.75;;;;;;;2.46;80.85;103025.03;5052931;28;20779;-68
2023/01/24 08:11:57;;;;;;;54.67;33.90;;;;;;;2.55;80.80;103031.13;5065280;28;20119;-68
2023/01/24 08:14:24;;;;;;;56.42;33.75;;;;;;;2.29;81.46;103021.84;5069525;28;20411;-68
2023/01/24 08:16:52;;;;;;;55.80;34.47;;;;;;;2.25;81.82;103023.28;5074536;28;20067;-67
2023/01/24 08:19:19;;;;;;;57.80;34.10;;;;;;;2.21;82.48;103027.44;5030833;28;20111;-64
2023/01/24 08:22:06;;;;;;;51.00;30.98;;;;;;;2.13;82.69;103033.03;5059882;28;20045;-67
2023/01/24 08:24:34;;;;;;;51.25;32.25;;;;;;;2.25;82.46;103033.31;5060927;28;20048;-66
2023/01/24 08:27:02;;;;;;;51.85;32.70;;;;;;;2.26;82.18;103030.41;5065707;28;20053;-68
2023/01/24 08:29:30;;;;;;;53.38;32.67;;;;;;;2.47;81.87;103025.88;5059017;28;20052;-67
2023/01/24 08:31:58;;;;;;;59.90;35.28;;;;;;;2.17;81.90;103023.44;5071160;28;20045;-67
2023/01/24 08:34:25;;;;;;;62.08;34.60;;;;;;;2.40;82.14;103022.28;5067544;28;20048;-66
2023/01/24 08:36:53;;;;;;;58.40;34.08;;;;;;;2.49;81.13;103035.50;5065059;28;20064;-66
2023/01/24 08:39:20;;;;;;;58.20;35.55;;;;;;;2.63;81.34;103030.94;5070875;28;20055;-66
2023/01/24 08:41:55;;;;;;;59.67;35.60;;;;;;;2.63;80.73;103030.94;5062685;28;20064;-67
2023/01/24 08:44:22;;;;;;;58.58;34.90;;;;;;;2.49;81.09;103042.81;5055863;28;20048;-66
2023/01/24 08:46:50;;;;;;;57.00;34.03;;;;;;;2.70;80.72;103040.81;5048076;28;20060;-67
2023/01/24 08:49:17;;;;;;;55.05;34.97;;;;;;;2.36;81.22;103048.19;5058693;28;20121;-67
2023/01/24 08:51:45;;;;;;;65.78;35.88;;;;;;;2.34;81.61;103047.59;5061264;28;20045;-67
2023/01/24 08:54:14;;;;;;;60.60;34.63;;;;;;;2.21;82.02;103060.06;5060251;28;20055;-67
2023/01/24 08:56:41;;;;;;;59.17;35.38;;;;;;;2.44;82.09;103076.06;5059145;28;20040;-66
2023/01/24 08:59:08;;;;;;;59.90;36.63;;;;;;;2.47;82.19;103053.91;5067953;28;20060;-67
2023/01/24 09:01:36;;;;;;;62.10;36.13;;;;;;;2.21;82.09;103064.66;5063122;28;20049;-66
2023/01/24 09:04:04;;;;;;;61.08;36.53;;;;;;;2.23;82.39;103055.25;5059758;28;20129;-67
2023/01/24 09:06:32;;;;;;;63.00;36.58;;;;;;;2.39;82.09;103066.84;5070031;28;20629;-67
2023/01/24 09:08:59;;;;;;;66.13;37.72;;;;;;;2.52;81.79;103061.47;5058192;28;20049;-67
2023/01/24 09:11:27;;;;;;;59.60;35.40;;;;;;;2.53;81.43;103058.53;5069781;28;20053;-67
2023/01/24 09:13:54;;;;;;;61.58;36.05;;;;;;;2.40;81.63;103068.53;5060371;28;20134;-67
2023/01/24 09:16:22;;;;;;;61.13;36.00;;;;;;;2.40;82.46;103061.22;5042158;28;20396;-66
2023/01/24 09:18:50;;;;;;;60.53;36.33;;;;;;;2.40;81.95;103072.09;5060008;28;20048;-68
2023/01/24 09:21:18;;;;;;;60.17;37.37;;;;;;;2.59;81.30;103065.88;5058440;28;20052;-67
2023/01/24 09:23:46;;;;;;;61.30;36.17;;;;;;;2.27;81.78;103061.97;5057257;28;20052;-67
2023/01/24 09:26:13;;;;;;;62.25;35.75;;;;;;;2.37;82.40;103067.06;5057264;28;20049;-67
2023/01/24 09:28:40;;;;;;;60.40;35.95;;;;;;;2.62;81.82;103062.75;5055824;28;20044;-67
2023/01/24 09:31:09;;;;;;;61.47;37.33;;;;;;;2.85;80.98;103062.41;5056166;28;20120;-66
2023/01/24 09:33:36;;;;;;;64.50;38.03;;;;;;;2.87;80.72;103065.75;5043970;28;20045;-66
2023/01/24 09:36:17;;;;;;;;;;;;;;;2.74;80.62;103069.28;5066122;28;20053;-66
2023/01/24 09:38:44;;;;;;;62.00;35.17;;;;;;;2.71;80.50;103075.13;5047944;28;19928;-66
2023/01/24 09:41:56;;;;;;;58.97;33.45;;;;;;;2.45;81.47;103082.34;5057192;28;20041;-66
2023/01/24 09:45:05;;;;;;;60.00;34.72;;;;;;;2.44;82.40;103075.25;5057745;28;20041;-66
2023/01/24 09:48:11;;;;;;;60.17;37.22;;;;;;;2.44;82.51;103077.97;5069820;28;20045;-65
2023/01/24 09:50:44;;;;;;;60.72;34.60;;;;;;;2.36;82.25;103078.97;5065081;28;20048;-66
2023/01/24 09:53:19;;;;;;;60.70;34.53;;;;;;;2.45;82.48;103079.63;5070229;28;20048;-68
2023/01/24 09:55:47;;;;;;;58.25;34.10;;;;;;;2.60;81.98;103081.16;5053657;28;20067;-68
2023/01/24 09:58:31;;;;;;;59.92;34.28;;;;;;;2.60;81.55;103080.34;5058230;28;20048;-66
2023/01/24 10:01:07;;;;;;;54.97;32.70;;;;;;;2.65;80.90;103092.25;5062050;28;20044;-65
2023/01/24 10:03:36;;;;;;;57.35;33.10;;;;;;;2.67;81.12;103090.19;5060638;28;20053;-68
2023/01/24 10:06:24;;;;;;;57.72;33.67;;;;;;;2.59;81.32;103082.22;5056866;28;20060;-67
2023/01/24 10:09:07;;;;;;;58.08;34.50;;;;;;;2.65;81.14;103096.88;5038822;28;20053;-67
2023/01/24 10:11:46;;;;;;;60.38;34.83;;;;;;;2.53;81.54;103101.22;5064715;28;20036;-67
2023/01/24 10:14:32;;;;;;;63.45;35.25;;;;;;;2.47;82.23;103099.31;5057096;28;20906;-68
2023/01/24 10:17:28;;;;;;;56.08;31.83;;;;;;;2.98;81.17;103089.66;5066088;28;20052;-69
2023/01/24 10:20:47;;;;;;;61.13;31.77;;;;;;;3.38;80.04;103096.88;5049829;28;20067;-72
2023/01/24 10:23:53;;;;;;;58.58;33.83;;;;;;;3.31;78.88;103096.84;5057362;28;20049;-73
2023/01/24 10:26:21;;;;;;;54.92;33.55;;;;;;;3.55;78.28;103095.41;5062679;28;20061;-73
2023/01/24 10:28:53;;;;;;;54.67;30.95;;;;;;;3.45;77.92;103084.91;5057384;28;20079;-72
2023/01/24 10:31:34;;;;;;;54.53;32.42;;;;;;;3.74;78.10;103089.13;5062216;28;20052;-72
2023/01/24 10:34:14;;;;;;;59.53;34.65;;;;;;;3.61;77.24;103080.13;5057985;28;20049;-72
2023/01/24 10:36:58;;;;;;;60.28;33.65;;;;;;;3.76;77.77;103083.44;5061796;28;20052;-73
2023/01/24 10:39:27;;;;;;;54.13;31.70;;;;;;;3.90;76.52;103083.25;5057102;28;20044;-75
2023/01/24 10:41:54;;;;;;;54.22;32.08;;;;;;;3.85;76.54;103080.31;5036308;28;20055;-70
2023/01/24 10:44:28;;;;;;;51.33;31.15;;;;;;;3.78;77.42;103078.63;5061634;28;20056;-71
2023/01/24 10:47:29;;;;;;;57.80;31.08;;;;;;;3.29;77.79;103074.44;5064033;28;20048;-70
2023/01/24 10:50:01;;;;;;;50.03;30.98;;;;;;;3.48;79.04;103072.78;5055223;28;20055;-69
2023/01/24 10:52:29;;;;;;;53.38;31.45;;;;;;;3.36;77.63;103075.25;5059979;28;20040;-70
2023/01/24 10:55:01;;;;;;;55.17;32.00;;;;;;;3.30;78.51;103065.22;5056169;28;20052;-73
2023/01/24 10:57:34;;;;;;;43.13;24.80;;;;;;;15.71;42.91;103026.69;5056034;28;20057;-71
2023/01/24 11:00:06;;;;;;;48.17;30.20;;;;;;;7.89;55.44;103045.44;5060071;28;20048;-73
2023/01/24 11:02:36;;;;;;;50.03;30.63;;;;;;;5.33;65.87;103057.19;5039264;28;20060;-72
2023/01/24 11:05:05;;;;;;;51.35;32.38;;;;;;;4.95;68.55;103044.63;5054790;28;20059;-70
2023/01/24 11:07:38;;;;;;;52.40;32.47;;;;;;;3.87;73.32;103064.56;5062161;28;20045;-71
2023/01/24 11:10:14;;;;;;;52.35;32.05;;;;;;;3.80;75.22;103052.00;5052665;28;20120;-70
2023/01/24 11:12:56;;;;;;;57.55;32.42;;;;;;;3.61;75.95;103048.22;5060077;28;20049;-71
2023/01/24 11:15:31;;;;;;;52.65;31.75;;;;;;;3.39;77.04;103053.06;5046469;28;20059;-72
2023/01/24 11:18:06;;;;;;;55.83;32.58;;;;;;;3.41;78.23;103047.41;5056897;28;20057;-71
2023/01/24 11:20:35;;;;;;;48.10;29.52;;;;;;;3.19;77.65;103044.03;5047873;28;20491;-71
2023/01/24 11:23:16;;;;;;;52.10;31.42;;;;;;;3.08;79.02;103043.81;5063288;28;20049;-72
2023/01/24 11:25:55;;;;;;;53.28;32.35;;;;;;;3.00;80.03;103036.69;5057010;28;20051;-73
2023/01/24 11:28:28;;;;;;;55.70;32.13;;;;;;;3.13;80.14;103034.00;5057055;28;20700;-70
2023/01/24 11:31:00;;;;;;;57.58;33.13;;;;;;;3.07;80.33;103036.69;5058771;28;20640;-73
2023/01/24 11:33:34;;;;;;;55.95;31.23;;;;;;;3.13;80.22;103047.59;5068144;28;20400;-73
2023/01/24 11:36:06;;;;;;;60.95;32.35;;;;;;;3.20;80.06;103036.72;5052268;28;20075;-72
2023/01/24 11:38:41;;;;;;;53.67;31.48;;;;;;;3.22;79.62;103030.03;5061536;28;20059;-73
2023/01/24 11:41:11;;;;;;;51.22;31.23;;;;;;;3.30;79.70;103034.41;5067380;28;20487;-71
2023/01/24 11:43:44;;;;;;;54.53;31.55;;;;;;;3.35;79.60;103040.06;5053732;28;20159;-69
2023/01/24 11:46:30;;;;;;;52.03;31.00;;;;;;;3.21;80.08;103038.38;5049424;28;20049;-67
2023/01/24 11:49:09;;;;;;;51.42;29.58;;;;;;;3.18;80.19;103045.09;5045293;28;20055;-69
2023/01/24 11:52:28;;;;;;;52.65;30.65;;;;;;;3.11;80.21;103027.06;5046259;28;20044;-70
2023/01/24 11:55:03;;;;;;;50.67;30.48;;;;;;;3.15;80.94;103031.06;5038380;28;20500;-65
2023/01/24 11:58:02;;;;;;;52.50;31.00;;;;;;;3.50;79.82;103015.34;5043816;28;20045;-66
2023/01/24 12:00:54;;;;;;;52.60;32.30;;;;;;;3.54;79.14;103022.06;5051813;28;20052;-66
2023/01/24 12:03:44;;;;;;;49.28;30.67;;;;;;;3.82;78.21;103011.75;5055950;28;20053;-67
2023/01/24 12:06:20;;;;;;;51.08;28.75;;;;;;;3.65;78.30;103015.94;5067596;28;20060;-67
2023/01/24 12:09:06;;;;;;;54.75;32.72;;;;;;;3.58;78.81;103009.66;5046539;28;20052;-66
2023/01/24 12:11:39;;;;;;;50.72;31.17;;;;;;;3.84;78.51;103001.44;5048219;28;20041;-66
2023/01/24 12:14:38;;;;;;;48.80;29.17;;;;;;;3.75;78.08;102998.13;5070026;28;20052;-66
2023/01/24 12:17:14;;;;;;;47.25;29.73;;;;;;;3.64;78.52;103009.69;5063369;28;20048;-66